Time;durP1;ratioP1;P1;durP2;ratioP2;P2;SDS_P1;SDS_P2;PMS_P1;PMS_P2;Temp;Humidity;BMP_temperature;BMP_pressure;BME280_temperature;BME280_humidity;BME280_pressure;Samples;Min_cycle;Max_cycle;Signal;HPM_P1;HPM_P2
2023/06/01 00:00:45;;;;;;;3.75;2.17;;;;;;;14.06;71.67;102510.63;5093466;27;97885;-27
2023/06/01 00:03:11;;;;;;;3.25;2.20;;;;;;;14.08;71.57;102514.16;5074722;27;101043;-28
2023/06/01 00:05:36;;;;;;;4.18;1.98;;;;;;;14.05;70.92;102512.47;5092536;27;114299;-27
2023/06/01 00:08:04;;;;;;;3.67;2.40;;;;;;;14.02;71.36;102499.88;5092820;27;116482;-27
2023/06/01 00:10:29;;;;;;;3.13;1.90;;;;;;;14.05;71.05;102495.25;5092760;27;99341;-27
2023/06/01 00:12:55;;;;;;;5.07;2.20;;;;;;;14.06;71.65;102502.44;5093263;27;99119;-27
2023/06/01 00:15:20;;;;;;;3.42;1.95;;;;;;;14.03;71.26;102498.91;5093740;27;96787;-28
2023/06/01 00:17:46;;;;;;;4.22;2.53;;;;;;;14.01;71.01;102500.84;5074355;27;98104;-28
2023/06/01 00:20:11;;;;;;;4.90;2.40;;;;;;;14.01;70.97;102506.31;5092969;27;99349;-27
2023/06/01 00:22:39;;;;;;;5.72;2.58;;;;;;;13.89;71.60;102511.44;5093346;27;99570;-27
2023/06/01 00:25:08;;;;;;;4.85;2.65;;;;;;;13.90;71.12;102508.66;5093077;27;97434;-27
2023/06/01 00:27:33;;;;;;;5.53;2.38;;;;;;;13.86;71.36;102506.16;5093138;27;96803;-28
2023/06/01 00:29:59;;;;;;;4.45;2.28;;;;;;;13.90;71.61;102505.94;5093744;27;96739;-27
2023/06/01 00:32:24;;;;;;;7.50;2.65;;;;;;;13.89;70.74;102501.44;5096534;27;99394;-28
2023/06/01 00:34:50;;;;;;;4.30;2.28;;;;;;;13.84;71.73;102500.78;5096950;27;96623;-27
2023/06/01 00:37:15;;;;;;;6.28;2.15;;;;;;;13.84;71.25;102499.91;5096632;27;96967;-27
2023/06/01 00:39:40;;;;;;;4.35;2.20;;;;;;;13.85;71.05;102509.81;5095720;27;116360;-27
2023/06/01 00:42:06;;;;;;;3.15;1.83;;;;;;;13.77;71.84;102502.03;5096588;27;98761;-29
2023/06/01 00:44:31;;;;;;;3.58;2.05;;;;;;;13.76;71.43;102500.28;5097152;27;96481;-28
2023/06/01 00:46:59;;;;;;;6.45;1.90;;;;;;;13.67;72.00;102504.31;5097151;27;96790;-28
2023/06/01 00:49:24;;;;;;;3.00;1.70;;;;;;;13.58;71.45;102497.47;5096636;27;98037;-27
2023/06/01 00:51:50;;;;;;;4.45;2.15;;;;;;;13.55;71.76;102494.03;5096349;27;99446;-28
2023/06/01 00:54:15;;;;;;;8.73;1.90;;;;;;;13.52;71.72;102497.78;5096079;27;96738;-27
2023/06/01 00:56:40;;;;;;;3.00;1.83;;;;;;;13.57;72.20;102495.72;5096647;27;96847;-27
2023/06/01 00:59:06;;;;;;;4.30;1.65;;;;;;;13.59;72.70;102487.47;5096331;27;97568;-27
2023/06/01 01:01:31;;;;;;;7.20;1.60;;;;;;;13.66;71.92;102501.66;5077926;27;97398;-28
2023/06/01 01:04:00;;;;;;;3.58;1.60;;;;;;;13.65;71.90;102497.19;5096531;27;96606;-27
2023/06/01 01:07:00;;;;;;;7.43;2.05;;;;;;;13.63;71.47;102501.81;5077802;27;96836;-30
2023/06/01 01:09:48;;;;;;;2.13;1.35;;;;;;;13.62;71.92;102511.84;5095946;27;99383;-27
2023/06/01 01:12:36;;;;;;;2.72;1.50;;;;;;;13.58;70.97;102507.47;5077775;27;98886;-27
2023/06/01 01:15:12;;;;;;;3.15;1.50;;;;;;;13.57;71.99;102503.00;5096318;27;96648;-27
2023/06/01 01:17:42;;;;;;;5.47;2.03;;;;;;;13.50;72.28;102496.97;5095712;27;96782;-27
2023/06/01 01:20:29;;;;;;;2.88;1.58;;;;;;;13.50;72.00;102499.69;5076925;27;100998;-28
2023/06/01 01:23:32;;;;;;;3.17;1.77;;;;;;;13.50;72.49;102502.41;5077348;27;100772;-27
2023/06/01 01:26:33;;;;;;;3.92;1.88;;;;;;;13.50;71.68;102505.13;5096501;27;96604;-27
2023/06/01 01:29:08;;;;;;;2.83;1.83;;;;;;;13.40;71.75;102492.91;5038962;27;96755;-27
2023/06/01 01:31:34;;;;;;;4.65;2.05;;;;;;;13.38;72.80;102511.16;5076824;27;101019;-27
2023/06/01 01:34:02;;;;;;;3.40;1.65;;;;;;;13.32;72.13;102496.00;5060529;27;100856;-28
2023/06/01 01:36:27;;;;;;;4.50;1.55;;;;;;;13.34;73.20;102504.06;5095078;27;96840;-27
2023/06/01 01:38:53;;;;;;;2.33;1.50;;;;;;;13.31;72.32;102504.22;5096305;27;96825;-28
2023/06/01 01:41:21;;;;;;;4.25;1.58;;;;;;;13.27;72.63;102497.13;5095660;27;98118;-28
2023/06/01 01:43:48;;;;;;;4.07;1.92;;;;;;;13.32;72.56;102498.72;5095527;27;97474;-27
2023/06/01 01:46:40;;;;;;;2.92;1.83;;;;;;;13.32;72.60;102503.25;5076159;27;97262;-27
2023/06/01 01:49:14;;;;;;;2.90;1.52;;;;;;;13.35;73.18;102508.59;5077097;27;97064;-27
2023/06/01 01:51:51;;;;;;;4.68;1.85;;;;;;;13.35;72.12;102501.31;5076734;27;100921;-27
2023/06/01 01:54:19;;;;;;;4.20;1.65;;;;;;;13.38;72.14;102494.81;5076829;27;100678;-27
2023/06/01 01:56:46;;;;;;;3.38;1.67;;;;;;;13.41;71.73;102500.13;5077048;27;96702;-27
2023/06/01 01:59:12;;;;;;;4.75;1.65;;;;;;;13.42;72.29;102493.72;5095456;27;96827;-28
2023/06/01 02:01:41;;;;;;;2.80;1.70;;;;;;;13.40;72.03;102487.47;5076702;27;100812;-28
2023/06/01 02:04:07;;;;;;;2.75;1.45;;;;;;;13.45;72.13;102493.56;5077076;27;101163;-27
2023/06/01 02:06:32;;;;;;;2.78;1.65;;;;;;;13.44;72.53;102490.91;5095470;27;96495;-27
2023/06/01 02:08:58;;;;;;;3.97;1.88;;;;;;;13.43;72.46;102492.75;5095307;27;97752;-27
2023/06/01 02:11:23;;;;;;;5.32;1.67;;;;;;;13.40;72.73;102486.59;5094446;27;99622;-28
2023/06/01 02:13:48;;;;;;;6.80;2.03;;;;;;;13.40;72.53;102486.59;5094842;27;109980;-27
2023/06/01 02:16:17;;;;;;;5.55;1.85;;;;;;;13.38;71.77;102484.81;5094849;27;96531;-27
2023/06/01 02:18:45;;;;;;;3.80;2.03;;;;;;;13.34;71.89;102482.31;5076577;27;96807;-27
2023/06/01 02:21:13;;;;;;;5.40;2.03;;;;;;;13.30;72.44;102478.84;5076410;27;101267;-28
2023/06/01 02:23:39;;;;;;;4.43;1.98;;;;;;;13.36;72.42;102488.56;5094888;27;97367;-27
2023/06/01 02:26:14;;;;;;;4.35;1.85;;;;;;;13.34;72.28;102483.19;5076281;27;96717;-27
2023/06/01 02:28:46;;;;;;;3.45;1.98;;;;;;;13.34;72.50;102488.63;5076939;27;96775;-28
2023/06/01 02:31:13;;;;;;;4.82;2.30;;;;;;;13.29;72.78;102473.47;5076395;27;99504;-28
2023/06/01 02:33:38;;;;;;;2.58;1.42;;;;;;;13.24;73.67;102472.78;5094656;27;97788;-27
2023/06/01 02:36:03;;;;;;;3.28;2.15;;;;;;;13.29;72.52;102487.09;5094121;27;103695;-27
2023/06/01 02:38:29;;;;;;;3.63;1.80;;;;;;;13.24;72.11;102478.22;5094584;27;96854;-29
2023/06/01 02:40:54;;;;;;;5.25;1.95;;;;;;;13.24;72.20;102480.94;5094792;27;97362;-28
2023/06/01 02:43:20;;;;;;;4.47;1.52;;;;;;;13.19;72.62;102470.28;5094481;27;99508;-27
2023/06/01 02:45:45;;;;;;;3.00;1.45;;;;;;;13.20;72.50;102482.03;5094725;27;96493;-28
2023/06/01 02:48:10;;;;;;;3.47;1.77;;;;;;;13.11;71.86;102476.06;5094839;27;96935;-28
2023/06/01 02:50:36;;;;;;;3.70;1.60;;;;;;;13.07;72.25;102477.16;5094263;27;98873;-30
2023/06/01 02:53:01;;;;;;;2.38;1.45;;;;;;;13.02;72.62;102476.50;5094313;27;97749;-27
2023/06/01 02:55:27;;;;;;;2.20;1.40;;;;;;;13.00;72.98;102472.97;5094746;27;96519;-28
2023/06/01 02:57:52;;;;;;;3.55;1.92;;;;;;;13.01;73.35;102477.44;5094474;27;96563;-28
2023/06/01 03:00:18;;;;;;;3.35;1.85;;;;;;;12.98;72.57;102484.88;5075425;27;101298;-27
2023/06/01 03:02:47;;;;;;;6.95;2.53;;;;;;;13.00;72.75;102482.97;5094489;27;98209;-28
2023/06/01 03:05:14;;;;;;;4.18;1.98;;;;;;;12.93;72.83;102479.63;5094357;27;96644;-28
2023/06/01 03:07:45;;;;;;;4.43;1.60;;;;;;;12.92;72.29;102476.03;5075768;27;96907;-28
2023/06/01 03:10:11;;;;;;;5.20;2.17;;;;;;;12.99;71.81;102487.53;5075678;27;100826;-27
2023/06/01 03:12:36;;;;;;;4.55;1.98;;;;;;;12.96;73.38;102474.03;5094259;27;97857;-27
2023/06/01 03:15:04;;;;;;;6.05;2.45;;;;;;;12.90;71.92;102480.66;5094464;27;96499;-28
2023/06/01 03:17:29;;;;;;;3.63;1.73;;;;;;;12.92;72.47;102483.31;5075659;27;96893;-27
2023/06/01 03:19:55;;;;;;;3.85;1.95;;;;;;;12.89;72.10;102487.03;5093811;27;99314;-27
2023/06/01 03:22:20;;;;;;;4.97;2.25;;;;;;;12.85;72.20;102479.09;5093824;27;99097;-28
2023/06/01 03:24:49;;;;;;;6.05;1.98;;;;;;;12.83;72.91;102483.72;5074982;27;97320;-27
2023/06/01 03:27:17;;;;;;;4.10;1.75;;;;;;;12.78;72.91;102483.06;5075393;27;96819;-28
2023/06/01 03:29:43;;;;;;;7.00;1.77;;;;;;;12.82;72.99;102490.09;5075182;27;101058;-27
2023/06/01 03:32:08;;;;;;;3.08;1.60;;;;;;;12.83;72.93;102492.75;5075254;27;97728;-29
2023/06/01 03:34:36;;;;;;;5.47;2.42;;;;;;;12.83;72.94;102486.44;5093572;27;96614;-28
2023/06/01 03:37:03;;;;;;;4.45;2.10;;;;;;;12.79;73.54;102479.38;5093258;27;96831;-27
2023/06/01 03:39:29;;;;;;;4.07;1.83;;;;;;;12.75;73.14;102476.78;5074894;27;101065;-28
2023/06/01 03:41:54;;;;;;;2.83;1.60;;;;;;;12.79;73.22;102482.09;5094267;27;97886;-27
2023/06/01 03:44:20;;;;;;;4.10;2.15;;;;;;;12.73;72.76;102492.28;5093900;27;96762;-28
2023/06/01 03:46:45;;;;;;;5.82;2.22;;;;;;;12.71;72.85;102494.19;5093696;27;96826;-27
2023/06/01 03:49:10;;;;;;;4.53;2.00;;;;;;;12.68;73.26;102485.25;5092861;27;99498;-27
2023/06/01 03:51:36;;;;;;;4.40;1.88;;;;;;;12.69;72.90;102490.66;5093610;27;97934;-27
2023/06/01 03:54:01;;;;;;;4.22;1.75;;;;;;;12.71;73.67;102490.59;5093745;27;96669;-27
2023/06/01 03:56:27;;;;;;;4.35;1.63;;;;;;;12.76;73.09;102496.69;5093268;27;101688;-27
2023/06/01 03:58:52;;;;;;;6.40;1.70;;;;;;;12.76;72.66;102485.81;5074751;27;100046;-27
2023/06/01 04:01:19;;;;;;;3.45;1.42;;;;;;;12.77;72.62;102489.41;5093127;27;107956;-27
2023/06/01 04:03:46;;;;;;;8.52;1.83;;;;;;;12.75;72.91;102493.09;5074350;27;96701;-27
2023/06/01 04:06:17;;;;;;;4.22;1.70;;;;;;;12.72;73.04;102486.91;5074480;27;96915;-27
2023/06/01 04:08:50;;;;;;;4.87;1.70;;;;;;;12.70;73.48;102480.66;5093319;27;98950;-27
2023/06/01 04:11:16;;;;;;;6.35;1.92;;;;;;;12.73;73.06;102488.69;5093204;27;98763;-28
2023/06/01 04:13:43;;;;;;;3.78;1.80;;;;;;;12.76;73.18;102485.81;5074360;27;97248;-28
2023/06/01 04:16:09;;;;;;;2.90;1.63;;;;;;;12.84;73.04;102488.19;5074671;27;97219;-27
2023/06/01 04:18:35;;;;;;;4.00;1.45;;;;;;;12.82;73.33;102487.38;5074397;27;100952;-27
2023/06/01 04:21:00;;;;;;;4.80;1.95;;;;;;;12.78;73.27;102477.63;5093216;27;99876;-29
2023/06/01 04:23:25;;;;;;;4.00;2.22;;;;;;;12.87;72.81;102482.63;5075134;27;96579;-27
2023/06/01 04:25:51;;;;;;;6.22;1.80;;;;;;;12.82;72.80;102482.81;5093468;27;96802;-27
2023/06/01 04:28:17;;;;;;;5.70;2.08;;;;;;;12.82;73.50;102487.38;5074571;27;100953;-27
2023/06/01 04:30:44;;;;;;;3.38;1.80;;;;;;;12.81;73.00;102485.63;5093300;27;99193;-27
2023/06/01 04:33:10;;;;;;;3.03;1.55;;;;;;;12.88;74.15;102490.72;5074195;27;96905;-28
2023/06/01 04:35:36;;;;;;;5.72;1.98;;;;;;;12.85;73.33;102492.69;5092716;27;96873;-27
2023/06/01 04:38:02;;;;;;;4.38;1.75;;;;;;;12.78;73.46;102488.50;5073934;27;100951;-27
2023/06/01 04:40:27;;;;;;;3.50;1.77;;;;;;;12.78;73.52;102489.38;5092899;27;99116;-27
2023/06/01 04:42:56;;;;;;;3.40;1.77;;;;;;;12.74;73.62;102493.16;5093247;27;96494;-27
2023/06/01 04:45:23;;;;;;;3.30;1.83;;;;;;;12.77;72.54;102490.31;5074242;27;96844;-27
2023/06/01 04:47:49;;;;;;;7.82;1.80;;;;;;;12.72;73.32;102490.50;5074195;27;101156;-28
2023/06/01 04:50:16;;;;;;;2.60;1.40;;;;;;;12.73;73.83;102495.00;5074200;27;98958;-28
2023/06/01 04:52:42;;;;;;;3.40;1.52;;;;;;;12.77;73.91;102497.59;5074470;27;96660;-27
2023/06/01 04:55:09;;;;;;;4.05;1.27;;;;;;;12.79;73.24;102495.69;5074613;27;96946;-27
2023/06/01 04:57:36;;;;;;;4.43;2.10;;;;;;;12.80;73.32;102492.00;5074063;27;98828;-27
2023/06/01 05:00:06;;;;;;;4.68;1.90;;;;;;;12.78;73.21;102478.50;5073815;27;100595;-27
2023/06/01 05:02:31;;;;;;;3.45;1.80;;;;;;;12.90;73.51;102498.81;5073590;27;97935;-28
2023/06/01 05:04:56;;;;;;;4.18;1.63;;;;;;;12.90;72.78;102494.25;5092711;27;96987;-28
2023/06/01 05:07:24;;;;;;;5.13;1.48;;;;;;;12.92;72.36;102488.75;5091913;27;116862;-27
2023/06/01 05:09:49;;;;;;;3.80;1.65;;;;;;;12.96;72.75;102498.53;5092618;27;98419;-27
2023/06/01 05:12:15;;;;;;;7.10;2.42;;;;;;;12.89;72.75;102487.03;5092776;27;96576;-27
2023/06/01 05:14:40;;;;;;;4.22;2.10;;;;;;;12.85;72.60;102490.88;5091946;27;110360;-28
2023/06/01 05:17:05;;;;;;;4.55;1.85;;;;;;;12.93;73.08;102491.38;5094486;27;99543;-27
2023/06/01 05:19:30;;;;;;;5.65;1.95;;;;;;;12.93;72.82;102491.38;5096368;27;98628;-27
2023/06/01 05:21:56;;;;;;;5.82;1.88;;;;;;;12.95;72.49;102492.19;5095797;27;108626;-29
2023/06/01 05:24:21;;;;;;;3.97;2.13;;;;;;;12.94;72.92;102494.97;5095741;27;104262;-27
2023/06/01 05:26:46;;;;;;;3.97;1.50;;;;;;;12.99;72.67;102501.13;5095562;27;97535;-27
2023/06/01 05:29:12;;;;;;;4.15;1.98;;;;;;;12.92;72.71;102496.91;5095424;27;110570;-27
2023/06/01 05:31:37;;;;;;;3.45;1.85;;;;;;;12.99;72.62;102498.41;5095611;27;96594;-27
2023/06/01 05:34:02;;;;;;;4.50;2.13;;;;;;;12.92;72.76;102494.19;5096064;27;96884;-27
2023/06/01 05:36:28;;;;;;;5.20;2.15;;;;;;;12.96;72.71;102495.81;5094722;27;99628;-28
2023/06/01 05:38:54;;;;;;;3.65;1.88;;;;;;;12.96;72.57;102493.06;5095817;27;97988;-28
2023/06/01 05:41:19;;;;;;;6.28;2.38;;;;;;;13.00;72.37;102493.84;5076792;27;96640;-28
2023/06/01 05:43:44;;;;;;;4.07;2.13;;;;;;;13.09;72.42;102505.19;5095910;27;96827;-28
2023/06/01 05:46:10;;;;;;;4.57;2.33;;;;;;;13.10;72.18;102501.50;5094177;27;97362;-28
2023/06/01 05:48:35;;;;;;;4.30;2.05;;;;;;;13.02;72.21;102497.38;5095268;27;98786;-33
2023/06/01 05:51:00;;;;;;;5.45;2.15;;;;;;;13.08;72.66;102503.41;5095512;27;97216;-28
2023/06/01 05:53:27;;;;;;;6.53;1.95;;;;;;;13.02;72.52;102500.09;5076817;27;97371;-28
2023/06/01 05:55:52;;;;;;;7.88;2.38;;;;;;;13.07;72.86;102509.81;5095212;27;99548;-27
2023/06/01 05:58:18;;;;;;;3.58;1.85;;;;;;;13.04;72.70;102511.78;5095152;27;97870;-27
2023/06/01 06:00:43;;;;;;;5.63;2.33;;;;;;;12.99;72.62;102509.28;5095453;27;96617;-29
2023/06/01 06:03:08;;;;;;;5.40;2.20;;;;;;;12.98;72.43;102512.94;5093042;27;102951;-33
2023/06/01 06:05:34;;;;;;;6.40;2.65;;;;;;;13.07;71.89;102509.81;5092703;27;99706;-28
2023/06/01 06:07:59;;;;;;;3.80;2.15;;;;;;;13.10;72.14;102503.34;5093183;27;98367;-28
2023/06/01 06:10:25;;;;;;;4.07;2.15;;;;;;;13.06;71.95;102496.25;5092970;27;97294;-32
2023/06/01 06:12:50;;;;;;;3.20;1.90;;;;;;;13.09;72.17;102499.75;5093190;27;96807;-31
2023/06/01 06:15:16;;;;;;;6.55;3.05;;;;;;;13.21;71.42;102501.03;5073384;27;101631;-28
2023/06/01 06:17:42;;;;;;;6.20;2.10;;;;;;;13.18;71.75;102509.34;5094018;27;99314;-27
2023/06/01 06:20:08;;;;;;;5.20;1.92;;;;;;;13.16;71.65;102506.66;5076616;27;96733;-28
2023/06/01 06:22:34;;;;;;;4.22;2.03;;;;;;;13.23;71.78;102501.84;5076619;27;96918;-27
2023/06/01 06:25:00;;;;;;;6.97;1.95;;;;;;;13.25;71.78;102510.81;5094980;27;97913;-28
2023/06/01 06:27:25;;;;;;;3.35;1.73;;;;;;;13.33;71.15;102505.03;5093944;27;97344;-27
2023/06/01 06:29:50;;;;;;;4.85;1.77;;;;;;;13.35;71.28;102506.75;5094775;27;96596;-27
2023/06/01 06:32:16;;;;;;;4.72;2.08;;;;;;;13.29;71.27;102495.25;5094803;27;108158;-26
2023/06/01 06:34:41;;;;;;;5.82;2.35;;;;;;;13.30;71.55;102500.63;5094847;27;98034;-27
2023/06/01 06:37:07;;;;;;;3.35;1.95;;;;;;;13.38;70.76;102501.16;5094396;27;97823;-27
2023/06/01 06:39:33;;;;;;;4.22;2.20;;;;;;;13.42;70.65;102498.28;5094321;27;96463;-27
2023/06/01 06:42:02;;;;;;;3.88;2.10;;;;;;;13.48;70.68;102511.59;5094778;27;96731;-28
2023/06/01 06:44:27;;;;;;;6.22;2.58;;;;;;;13.45;70.47;102509.03;5075971;27;101458;-26
2023/06/01 06:46:53;;;;;;;4.90;2.03;;;;;;;13.44;70.71;102505.41;5094425;27;99688;-27
2023/06/01 06:49:18;;;;;;;3.85;2.30;;;;;;;13.51;70.49;102514.16;5094631;27;96561;-27
2023/06/01 06:51:44;;;;;;;5.03;2.63;;;;;;;13.47;70.28;102513.44;5094871;27;96516;-27
2023/06/01 06:54:09;;;;;;;4.00;1.88;;;;;;;13.45;70.64;102512.63;5076020;27;101107;-27
2023/06/01 06:56:34;;;;;;;3.05;2.05;;;;;;;13.48;70.27;102514.31;5094711;27;97773;-27
2023/06/01 06:59:00;;;;;;;3.83;1.98;;;;;;;13.50;70.41;102507.84;5094543;27;96738;-27
2023/06/01 07:01:26;;;;;;;3.58;1.85;;;;;;;13.55;70.05;102511.25;5094298;27;96841;-27
2023/06/01 07:03:52;;;;;;;3.72;2.15;;;;;;;13.56;70.30;102512.13;5093824;27;97903;-27
2023/06/01 07:06:18;;;;;;;4.95;1.77;;;;;;;13.58;69.81;102513.81;5094497;27;97754;-28
2023/06/01 07:08:43;;;;;;;4.35;2.25;;;;;;;13.59;70.00;102515.59;5075723;27;96543;-27
2023/06/01 07:11:09;;;;;;;7.35;2.50;;;;;;;13.62;70.08;102519.13;5094134;27;96764;-27
2023/06/01 07:13:35;;;;;;;6.70;2.60;;;;;;;13.66;69.57;102515.28;5094357;27;97991;-27
2023/06/01 07:16:01;;;;;;;4.88;2.03;;;;;;;13.70;70.07;102525.06;5094291;27;97951;-27
2023/06/01 07:18:26;;;;;;;7.18;2.28;;;;;;;13.74;69.81;102513.09;5093929;27;96597;-27
2023/06/01 07:20:51;;;;;;;3.92;2.22;;;;;;;13.76;69.46;102517.50;5093971;27;107962;-27
2023/06/01 07:23:17;;;;;;;5.20;1.88;;;;;;;13.86;68.97;102512.50;5093657;27;110880;-27
2023/06/01 07:25:42;;;;;;;8.85;2.65;;;;;;;13.93;68.99;102524.84;5094026;27;97735;-27
2023/06/01 07:28:08;;;;;;;7.43;2.20;;;;;;;13.99;68.88;102513.66;5093271;27;106165;-27
2023/06/01 07:30:36;;;;;;;7.00;2.08;;;;;;;14.14;68.73;102514.75;5094183;27;96738;-27
2023/06/01 07:33:03;;;;;;;3.88;1.98;;;;;;;14.20;68.56;102508.09;5093684;27;97376;-27
2023/06/01 07:35:28;;;;;;;2.80;1.60;;;;;;;14.22;68.30;102514.34;5093623;27;99176;-27
2023/06/01 07:37:54;;;;;;;4.38;1.90;;;;;;;14.18;67.91;102513.63;5075300;27;96597;-28
2023/06/01 07:40:19;;;;;;;3.40;1.70;;;;;;;14.21;68.20;102512.59;5093688;27;96789;-27
2023/06/01 07:42:45;;;;;;;5.15;1.73;;;;;;;14.25;68.22;102516.91;5093786;27;97926;-27
2023/06/01 07:45:10;;;;;;;3.53;1.52;;;;;;;14.22;67.78;102509.78;5094297;27;97855;-27
2023/06/01 07:47:36;;;;;;;6.05;2.25;;;;;;;14.20;67.50;102514.41;5093810;27;96530;-27
2023/06/01 07:50:02;;;;;;;4.32;2.13;;;;;;;14.24;67.66;102513.31;5093625;27;96841;-27
2023/06/01 07:52:27;;;;;;;3.60;1.70;;;;;;;14.23;67.72;102514.28;5093272;27;98399;-27
2023/06/01 07:54:52;;;;;;;5.88;2.10;;;;;;;14.19;67.69;102511.78;5093352;27;97948;-27
2023/06/01 07:57:18;;;;;;;4.45;2.30;;;;;;;14.51;67.39;102512.00;5093586;27;96603;-27
2023/06/01 07:59:44;;;;;;;3.65;1.95;;;;;;;14.94;66.44;102510.66;5093375;27;96828;-27
2023/06/01 08:02:10;;;;;;;3.85;1.98;;;;;;;15.10;65.55;102518.91;5093603;27;97951;-27
2023/06/01 08:04:37;;;;;;;3.35;1.95;;;;;;;14.99;65.58;102515.84;5074873;27;101276;-27
2023/06/01 08:07:03;;;;;;;6.70;2.10;;;;;;;14.97;65.93;102526.88;5075055;27;96865;-27
2023/06/01 08:09:30;;;;;;;7.50;2.47;;;;;;;14.99;65.79;102527.69;5075117;27;96831;-28
2023/06/01 08:11:55;;;;;;;4.95;1.92;;;;;;;15.20;65.46;102520.16;5074643;27;99149;-27
2023/06/01 08:14:20;;;;;;;6.03;2.30;;;;;;;15.42;65.01;102510.78;5093393;27;97779;-27
2023/06/01 08:16:46;;;;;;;4.13;2.03;;;;;;;15.71;64.58;102509.22;5092799;27;96560;-28
2023/06/01 08:19:11;;;;;;;5.18;2.08;;;;;;;15.81;63.69;102504.09;5074548;27;96951;-28
2023/06/01 08:21:37;;;;;;;6.07;1.83;;;;;;;15.89;63.65;102504.53;5093333;27;97895;-27
2023/06/01 08:24:03;;;;;;;3.28;2.00;;;;;;;16.04;63.69;102510.97;5093019;27;97313;-28
2023/06/01 08:26:29;;;;;;;4.80;1.95;;;;;;;16.13;63.40;102500.38;5093098;27;96563;-27
2023/06/01 08:28:55;;;;;;;3.90;1.88;;;;;;;16.13;63.50;102499.50;5074694;27;96645;-27
2023/06/01 08:31:22;;;;;;;4.50;2.00;;;;;;;16.17;62.94;102497.47;5093235;27;98068;-27
2023/06/01 08:33:50;;;;;;;3.97;2.25;;;;;;;16.22;63.46;102503.56;5074481;27;101296;-27
2023/06/01 08:36:16;;;;;;;4.55;2.20;;;;;;;16.24;63.20;102507.09;5073960;27;96696;-27
2023/06/01 08:38:42;;;;;;;3.88;1.80;;;;;;;16.17;63.05;102500.22;5074213;27;96903;-29
2023/06/01 08:41:30;;;;;;;4.13;2.13;;;;;;;16.13;62.86;102511.31;5092486;27;99289;-27
2023/06/01 08:44:03;;;;;;;4.50;1.60;;;;;;;16.09;63.15;102508.88;5079530;27;97266;-27
2023/06/01 08:46:31;;;;;;;5.55;1.85;;;;;;;16.05;62.47;102507.28;5092966;27;96593;-27
2023/06/01 08:48:58;;;;;;;7.90;2.15;;;;;;;16.30;62.83;102514.91;5074423;27;96832;-27
2023/06/01 08:51:25;;;;;;;4.90;2.30;;;;;;;16.30;62.63;102506.69;5075809;27;99620;-27
2023/06/01 08:53:53;;;;;;;2.95;1.83;;;;;;;16.60;62.21;102504.00;5077669;27;101013;-27
2023/06/01 08:56:21;;;;;;;5.05;2.28;;;;;;;16.78;61.37;102502.00;5077888;27;96662;-29
2023/06/01 08:58:47;;;;;;;3.75;1.75;;;;;;;16.71;61.57;102492.41;5078223;27;96866;-27
2023/06/01 09:01:21;;;;;;;3.28;1.70;;;;;;;16.61;61.43;102494.78;5096233;27;99236;-27
2023/06/01 09:03:50;;;;;;;3.17;1.80;;;;;;;16.62;62.16;102501.19;5077588;27;101327;-27
2023/06/01 09:06:16;;;;;;;2.95;1.85;;;;;;;16.66;61.05;102491.78;5077259;27;96988;-27
2023/06/01 09:08:42;;;;;;;4.85;2.03;;;;;;;16.72;61.39;102489.56;5077601;27;96834;-26
2023/06/01 09:11:07;;;;;;;5.80;2.17;;;;;;;16.79;61.20;102486.50;5096361;27;97946;-27
2023/06/01 09:13:33;;;;;;;7.50;2.40;;;;;;;17.21;60.10;102499.38;5095756;27;109793;-27
2023/06/01 09:15:58;;;;;;;4.63;1.80;;;;;;;17.44;59.56;102484.16;5096414;27;96682;-28
2023/06/01 09:18:24;;;;;;;5.75;2.10;;;;;;;17.68;59.79;102480.81;5095631;27;96903;-27
2023/06/01 09:20:50;;;;;;;3.70;1.98;;;;;;;17.91;58.05;102482.97;5096502;27;97304;-28
2023/06/01 09:23:28;;;;;;;3.88;2.10;;;;;;;18.07;57.86;102469.13;5096111;27;98764;-27
2023/06/01 09:26:11;;;;;;;4.25;2.00;;;;;;;18.32;56.98;102470.19;5096302;27;96497;-26
2023/06/01 09:28:51;;;;;;;3.78;2.00;;;;;;;18.53;56.35;102476.06;5077167;27;96904;-27
2023/06/01 09:31:40;;;;;;;3.55;2.28;;;;;;;18.67;56.66;102474.09;5095566;27;98255;-27
2023/06/01 09:34:06;;;;;;;4.65;2.00;;;;;;;18.71;56.24;102473.88;5077153;27;101060;-27
2023/06/01 09:36:33;;;;;;;5.63;2.13;;;;;;;18.81;55.27;102462.19;5095551;27;96766;-28
2023/06/01 09:39:02;;;;;;;7.10;2.75;;;;;;;18.96;55.22;102471.19;5077119;27;96910;-27
2023/06/01 09:41:43;;;;;;;5.40;2.10;;;;;;;19.02;54.25;102468.03;5077207;27;101266;-29
2023/06/01 09:44:08;;;;;;;5.40;2.30;;;;;;;19.02;55.24;102462.53;5077064;27;101247;-27
2023/06/01 09:46:46;;;;;;;7.97;2.40;;;;;;;19.07;54.83;102462.22;5095788;27;96610;-27
2023/06/01 09:49:19;;;;;;;4.55;2.20;;;;;;;19.24;54.23;102459.13;5077550;27;96804;-27
2023/06/01 09:51:45;;;;;;;4.47;1.75;;;;;;;19.42;54.15;102456.00;5076991;27;100826;-28
2023/06/01 09:54:20;;;;;;;4.47;1.85;;;;;;;19.55;53.78;102462.38;5095402;27;99349;-27
2023/06/01 09:56:46;;;;;;;6.03;2.28;;;;;;;19.66;53.40;102458.81;5095373;27;96602;-27
2023/06/01 09:59:11;;;;;;;4.22;1.95;;;;;;;19.80;53.95;102460.56;5095515;27;96934;-28
2023/06/01 10:01:36;;;;;;;5.78;2.03;;;;;;;19.94;53.35;102457.66;5095283;27;98003;-27
2023/06/01 10:04:04;;;;;;;4.47;2.05;;;;;;;19.91;53.16;102449.63;5094089;27;97309;-27
2023/06/01 10:06:35;;;;;;;5.35;2.28;;;;;;;19.93;52.55;102445.78;5095240;27;96557;-27
2023/06/01 10:09:01;;;;;;;5.88;2.35;;;;;;;19.87;52.96;102451.72;5076989;27;96706;-27
2023/06/01 10:11:27;;;;;;;5.93;2.25;;;;;;;19.99;52.83;102443.53;5076643;27;100899;-29
2023/06/01 10:13:53;;;;;;;5.80;2.28;;;;;;;20.21;53.44;102446.41;5076816;27;101789;-27
2023/06/01 10:16:18;;;;;;;5.28;2.30;;;;;;;20.35;53.03;102446.25;5095420;27;96593;-27
2023/06/01 10:18:47;;;;;;;3.42;1.88;;;;;;;20.33;51.89;102445.47;5094658;27;96948;-27
2023/06/01 10:21:13;;;;;;;4.57;2.35;;;;;;;20.45;51.80;102440.00;5075833;27;101301;-27
2023/06/01 10:23:40;;;;;;;5.30;2.50;;;;;;;20.53;50.03;102432.03;5095021;27;97798;-27
2023/06/01 10:26:12;;;;;;;4.55;2.40;;;;;;;20.41;50.89;102441.25;5076623;27;97255;-27
2023/06/01 10:28:38;;;;;;;4.32;2.13;;;;;;;20.52;51.62;102441.25;5076526;27;96743;-28
2023/06/01 10:31:36;;;;;;;5.32;2.25;;;;;;;20.48;51.12;102426.00;5076185;27;100929;-27
2023/06/01 10:34:02;;;;;;;4.57;2.42;;;;;;;20.57;50.07;102439.09;5094752;27;99188;-27
2023/06/01 10:36:52;;;;;;;4.07;2.33;;;;;;;20.75;51.06;102440.34;5075914;27;96919;-27
2023/06/01 10:39:31;;;;;;;3.53;2.10;;;;;;;20.90;50.06;102438.25;5095396;27;96914;-27
2023/06/01 10:42:12;;;;;;;3.90;2.20;;;;;;;21.02;50.75;102441.03;5076142;27;100864;-28
2023/06/01 10:44:37;;;;;;;4.47;2.40;;;;;;;21.08;49.06;102454.31;5075952;27;100819;-27
2023/06/01 10:47:03;;;;;;;4.55;2.35;;;;;;;21.10;48.99;102433.91;5075733;27;96499;-28
2023/06/01 10:49:46;;;;;;;4.40;2.67;;;;;;;21.22;48.46;102445.81;5076108;27;96852;-27
2023/06/01 10:52:25;;;;;;;4.20;2.22;;;;;;;21.34;48.83;102441.19;5094619;27;98043;-27
2023/06/01 10:54:50;;;;;;;7.10;2.30;;;;;;;21.31;48.42;102438.66;5075795;27;101223;-27
2023/06/01 10:57:21;;;;;;;3.85;2.20;;;;;;;21.37;47.88;102440.91;5094858;27;97299;-27
2023/06/01 11:00:10;;;;;;;4.53;2.33;;;;;;;21.44;48.40;102433.06;5094424;27;96832;-27
2023/06/01 11:02:55;;;;;;;4.40;2.47;;;;;;;21.54;48.96;102439.56;5075393;27;101556;-27
2023/06/01 11:05:48;;;;;;;4.88;2.70;;;;;;;21.45;47.11;102435.66;5076146;27;100917;-28
2023/06/01 11:08:16;;;;;;;5.45;2.08;;;;;;;21.40;47.04;102432.41;5094381;27;96511;-27
2023/06/01 11:10:50;;;;;;;10.50;2.97;;;;;;;21.50;47.41;102433.44;5094304;27;96859;-27
2023/06/01 11:13:19;;;;;;;4.57;2.00;;;;;;;21.53;49.00;102421.28;5093570;27;97915;-27
2023/06/01 11:16:07;;;;;;;4.72;2.70;;;;;;;21.53;46.80;102410.25;5093835;27;99344;-27
2023/06/01 11:18:42;;;;;;;4.35;2.08;;;;;;;21.53;47.41;102421.28;5075412;27;96619;-27
2023/06/01 11:21:18;;;;;;;4.45;2.20;;;;;;;21.60;47.17;102412.34;5075629;27;96867;-27
2023/06/01 11:23:45;;;;;;;6.15;2.63;;;;;;;21.80;47.51;102418.06;5075579;27;101579;-29
2023/06/01 11:26:14;;;;;;;4.28;1.98;;;;;;;21.92;47.19;102416.16;5075381;27;100758;-27
2023/06/01 11:28:39;;;;;;;3.65;1.95;;;;;;;21.92;47.27;102422.53;5075452;27;96508;-27